createdAt,value
2022-09-23T00:00:14.638Z,8.97
2022-09-23T00:04:00.106Z,8.96
2022-09-23T00:07:42.827Z,8.92
2022-09-23T00:11:27.849Z,8.87
2022-09-23T00:15:11.718Z,8.82
2022-09-23T00:18:55.983Z,8.80
2022-09-23T00:22:38.777Z,8.77
2022-09-23T00:26:22.524Z,8.74
2022-09-23T00:30:06.871Z,8.72
2022-09-23T00:33:55.133Z,8.67
2022-09-23T00:37:40.916Z,8.61
2022-09-23T00:41:23.953Z,8.57
2022-09-23T00:45:11.099Z,8.55
2022-09-23T00:48:58.792Z,8.50
2022-09-23T00:52:41.649Z,8.42
2022-09-23T00:56:24.982Z,8.35
2022-09-23T01:00:09.511Z,8.35
2022-09-23T01:03:53.554Z,8.35
2022-09-23T01:07:37.678Z,8.28
2022-09-23T01:11:30.097Z,8.26
2022-09-23T01:15:16.649Z,8.22
2022-09-23T01:19:08.396Z,8.20
2022-09-23T01:22:58.856Z,8.13
2022-09-23T01:27:04.165Z,8.07
2022-09-23T01:30:51.775Z,8.03
2022-09-23T01:34:37.364Z,7.99
2022-09-23T01:38:28.086Z,7.94
2022-09-23T01:42:21.897Z,7.90
2022-09-23T01:46:09.833Z,7.87
2022-09-23T01:49:55.272Z,7.83
2022-09-23T01:53:40.799Z,7.81
2022-09-23T01:57:26.592Z,7.81
2022-09-23T02:01:14.284Z,7.80
2022-09-23T02:05:00.287Z,7.74
2022-09-23T02:08:45.516Z,7.74
2022-09-23T02:12:29.515Z,7.67
2022-09-23T02:16:19.293Z,7.66
2022-09-23T02:20:05.970Z,7.66
2022-09-23T02:23:52.129Z,7.67
2022-09-23T02:27:40.721Z,7.57
2022-09-23T02:31:31.167Z,7.53
2022-09-23T02:35:19.034Z,7.53
2022-09-23T02:39:04.779Z,7.56
2022-09-23T02:42:54.071Z,7.47
2022-09-23T02:46:38.336Z,7.32
2022-09-23T02:50:22.648Z,7.26
2022-09-23T02:54:07.603Z,7.29
2022-09-23T02:57:50.688Z,7.33
2022-09-23T03:01:39.726Z,7.33
2022-09-23T03:05:24.998Z,7.29
2022-09-23T03:09:11.758Z,7.33
2022-09-23T03:13:04.500Z,7.34
2022-09-23T03:16:56.853Z,7.30
2022-09-23T03:20:43.862Z,7.28
2022-09-23T03:24:27.252Z,7.25
2022-09-23T03:28:10.753Z,7.22
2022-09-23T03:31:57.383Z,7.20
2022-09-23T03:36:00.190Z,7.15
2022-09-23T03:39:44.745Z,7.16
2022-09-23T03:43:27.555Z,7.16
2022-09-23T03:47:12.460Z,7.17
2022-09-23T03:50:57.520Z,7.16
2022-09-23T03:54:40.442Z,7.09
2022-09-23T03:58:23.735Z,7.07
2022-09-23T04:02:07.795Z,7.03
2022-09-23T04:05:52.335Z,6.95
2022-09-23T04:09:35.118Z,6.89
2022-09-23T04:13:18.040Z,6.84
2022-09-23T04:17:00.731Z,6.75
2022-09-23T04:20:43.374Z,6.74
2022-09-23T04:24:27.696Z,6.68
2022-09-23T04:28:10.391Z,6.65
2022-09-23T04:31:53.494Z,6.62
2022-09-23T04:35:40.153Z,6.60
2022-09-23T04:39:23.283Z,6.58
2022-09-23T04:43:11.673Z,6.53
2022-09-23T04:46:56.231Z,6.51
2022-09-23T04:50:39.660Z,6.49
2022-09-23T04:54:22.431Z,6.47
2022-09-23T04:58:05.148Z,6.49
2022-09-23T05:01:51.721Z,6.45
2022-09-23T05:05:35.430Z,6.43
2022-09-23T05:09:18.577Z,6.42
2022-09-23T05:13:02.405Z,6.39
2022-09-23T05:16:45.146Z,6.37
2022-09-23T05:20:29.633Z,6.30
2022-09-23T05:24:13.499Z,6.27
2022-09-23T05:27:56.269Z,6.29
2022-09-23T05:31:39.011Z,6.43
2022-09-23T05:35:21.929Z,6.62
2022-09-23T05:39:06.799Z,6.80
2022-09-23T05:42:51.393Z,6.94
2022-09-23T05:46:34.373Z,7.03
2022-09-23T05:50:17.285Z,7.18
2022-09-23T05:54:04.279Z,7.33
2022-09-23T05:57:48.723Z,7.46
2022-09-23T06:01:33.984Z,7.57
2022-09-23T06:05:17.418Z,7.66
2022-09-23T06:09:00.542Z,7.78
2022-09-23T06:12:44.503Z,7.88
2022-09-23T06:16:33.556Z,8.00
2022-09-23T06:20:18.909Z,8.05
2022-09-23T06:24:02.710Z,8.11
2022-09-23T06:27:45.784Z,8.09
2022-09-23T06:31:28.959Z,8.04
2022-09-23T06:35:25.136Z,8.02
2022-09-23T06:39:09.521Z,8.03
2022-09-23T06:42:58.664Z,8.11
2022-09-23T06:46:41.526Z,8.14
2022-09-23T06:50:26.899Z,8.27
2022-09-23T06:54:10.985Z,8.37
2022-09-23T06:57:54.050Z,8.53
2022-09-23T07:01:36.889Z,8.71
2022-09-23T07:05:19.726Z,8.82
2022-09-23T07:09:05.823Z,8.99
2022-09-23T07:12:48.560Z,9.19
2022-09-23T07:16:31.686Z,9.38
2022-09-23T07:20:14.425Z,9.55
2022-09-23T07:23:58.023Z,9.72
2022-09-23T07:27:42.168Z,9.88
2022-09-23T07:31:37.126Z,10.04
2022-09-23T07:35:21.733Z,10.19
2022-09-23T07:39:05.224Z,10.26
2022-09-23T07:42:49.348Z,10.38
2022-09-23T07:46:34.041Z,10.48
2022-09-23T07:50:16.849Z,10.60
2022-09-23T07:54:00.293Z,10.71
2022-09-23T07:57:43.066Z,10.82
2022-09-23T08:01:27.738Z,10.86
2022-09-23T08:05:11.152Z,10.91
2022-09-23T08:08:54.314Z,10.97
2022-09-23T08:12:37.007Z,11.06
2022-09-23T08:16:19.893Z,11.14
2022-09-23T08:20:04.404Z,11.23
2022-09-23T08:23:47.215Z,11.35
2022-09-23T08:27:30.152Z,11.50
2022-09-23T08:31:13.675Z,11.64
2022-09-23T08:34:56.904Z,11.72
2022-09-23T08:38:41.025Z,11.81
2022-09-23T08:42:29.552Z,11.87
2022-09-23T08:46:14.416Z,11.97
2022-09-23T08:50:03.974Z,12.12
2022-09-23T08:53:49.971Z,12.18
2022-09-23T08:57:40.393Z,12.22
2022-09-23T09:01:27.148Z,12.28
2022-09-23T09:05:11.406Z,12.41
2022-09-23T09:08:58.802Z,12.52
2022-09-23T09:12:44.658Z,12.58
2022-09-23T09:16:59.101Z,12.66
2022-09-23T09:20:47.272Z,12.77
2022-09-23T09:24:33.412Z,12.90
2022-09-23T09:28:20.042Z,13.04
2022-09-23T09:32:14.229Z,13.16
2022-09-23T09:36:17.294Z,13.23
2022-09-23T09:40:02.022Z,13.27
2022-09-23T09:43:48.410Z,13.32
2022-09-23T09:47:38.432Z,13.45
2022-09-23T09:51:22.928Z,13.50
2022-09-23T09:55:26.310Z,13.56
2022-09-23T09:59:12.074Z,13.67
2022-09-23T10:02:55.788Z,13.77
2022-09-23T10:06:38.524Z,13.82
2022-09-23T10:10:33.506Z,13.91
2022-09-23T10:14:18.595Z,14.08
2022-09-23T10:18:02.541Z,14.20
2022-09-23T10:21:45.303Z,14.28
2022-09-23T10:25:29.433Z,14.36
2022-09-23T10:29:24.152Z,14.38
2022-09-23T10:33:27.893Z,14.42
2022-09-23T10:37:16.967Z,14.51
2022-09-23T10:41:18.515Z,14.65
2022-09-23T10:45:25.106Z,14.81
2022-09-23T10:49:45.556Z,14.96
2022-09-23T10:53:35.691Z,15.07
2022-09-23T10:57:41.947Z,15.17
2022-09-23T11:01:31.982Z,15.27
2022-09-23T11:05:21.520Z,15.44
2022-09-23T11:09:12.964Z,15.48
2022-09-23T11:13:03.037Z,15.61
2022-09-23T11:17:00.996Z,15.88
2022-09-23T11:20:49.013Z,16.03
2022-09-23T11:24:50.269Z,16.10
2022-09-23T11:28:56.074Z,16.27
2022-09-23T11:36:53.360Z,16.58
2022-09-23T11:40:41.056Z,16.71
2022-09-23T11:44:30.972Z,16.84
2022-09-23T11:48:16.940Z,17.05
2022-09-23T11:52:06.456Z,17.04
2022-09-23T11:55:57.861Z,17.18
2022-09-23T12:03:44.494Z,17.29
2022-09-23T12:07:31.782Z,17.35
2022-09-23T12:11:25.796Z,17.45
2022-09-23T12:15:18.856Z,17.54
2022-09-23T12:19:07.669Z,17.74
2022-09-23T12:22:58.572Z,17.81
2022-09-23T12:26:41.539Z,17.88
2022-09-23T12:30:29.290Z,18.00
2022-09-23T12:34:22.168Z,18.09
2022-09-23T12:38:13.742Z,18.34
2022-09-23T12:42:01.470Z,18.38
2022-09-23T12:45:45.596Z,18.41
2022-09-23T12:49:37.697Z,18.52
2022-09-23T12:53:54.551Z,18.62
2022-09-23T12:57:43.696Z,18.86
2022-09-23T13:01:28.070Z,19.15
2022-09-23T13:05:37.773Z,19.25
2022-09-23T13:09:24.881Z,19.38
2022-09-23T13:13:08.260Z,19.53
2022-09-23T13:16:52.635Z,19.74
2022-09-23T13:20:41.010Z,19.98
2022-09-23T13:24:36.920Z,20.25
2022-09-23T13:28:31.778Z,20.41
2022-09-23T13:32:18.325Z,20.47
2022-09-23T13:36:04.200Z,20.72
2022-09-23T13:39:47.419Z,20.78
2022-09-23T13:43:33.532Z,20.71
2022-09-23T13:47:20.918Z,20.67
2022-09-23T13:51:10.100Z,20.77
2022-09-23T13:54:52.923Z,20.72
2022-09-23T13:58:36.920Z,20.82
2022-09-23T14:02:26.961Z,21.06
2022-09-23T14:06:12.793Z,21.32
2022-09-23T14:09:56.757Z,21.42
2022-09-23T14:13:43.415Z,21.74
2022-09-23T14:17:27.664Z,21.91
2022-09-23T14:21:28.613Z,21.72
2022-09-23T14:25:14.707Z,21.66
2022-09-23T14:28:57.798Z,21.53
2022-09-23T14:32:42.138Z,21.52
2022-09-23T14:36:42.403Z,21.55
2022-09-23T14:40:27.711Z,21.79
2022-09-23T14:44:22.268Z,22.05
2022-09-23T14:48:11.311Z,22.12
2022-09-23T14:51:56.179Z,22.32
2022-09-23T14:55:39.534Z,22.29
2022-09-23T14:59:27.595Z,22.31
2022-09-23T15:03:15.960Z,22.38
2022-09-23T15:07:03.371Z,22.57
2022-09-23T15:10:46.911Z,22.82
2022-09-23T15:14:40.994Z,22.84
2022-09-23T15:18:26.800Z,22.73
2022-09-23T15:22:11.121Z,22.74
2022-09-23T15:25:56.095Z,22.67
2022-09-23T15:29:39.174Z,22.43
2022-09-23T15:33:27.821Z,22.25
2022-09-23T15:37:12.441Z,22.27
2022-09-23T15:40:55.538Z,22.24
2022-09-23T15:44:38.438Z,22.18
2022-09-23T15:48:23.080Z,21.92
2022-09-23T15:52:12.342Z,21.92
2022-09-23T15:55:55.407Z,21.75
2022-09-23T15:59:38.172Z,21.60
2022-09-23T16:03:23.119Z,21.42
2022-09-23T16:07:05.879Z,21.05
2022-09-23T16:10:50.116Z,20.81
2022-09-23T16:14:32.856Z,20.52
2022-09-23T16:18:15.699Z,20.38
2022-09-23T16:21:58.525Z,20.22
2022-09-23T16:25:43.975Z,20.05
2022-09-23T16:29:28.380Z,19.84
2022-09-23T16:33:11.177Z,19.64
2022-09-23T16:36:53.917Z,19.45
2022-09-23T16:40:36.749Z,19.33
2022-09-23T16:44:19.576Z,19.23
2022-09-23T16:48:03.861Z,19.08
2022-09-23T16:51:46.540Z,18.90
2022-09-23T16:55:29.206Z,18.72
2022-09-23T16:59:11.945Z,18.52
2022-09-23T17:03:12.474Z,18.33
2022-09-23T17:06:56.675Z,18.09
2022-09-23T17:10:39.424Z,17.92
2022-09-23T17:14:22.150Z,17.72
2022-09-23T17:18:05.265Z,17.50
2022-09-23T17:21:47.887Z,17.35
2022-09-23T17:25:32.395Z,17.22
2022-09-23T17:29:15.835Z,17.11
2022-09-23T17:32:58.641Z,16.99
2022-09-23T17:36:41.357Z,16.84
2022-09-23T17:40:26.186Z,16.66
2022-09-23T17:44:12.181Z,16.53
2022-09-23T17:47:54.998Z,16.42
2022-09-23T17:51:37.798Z,16.32
2022-09-23T17:55:20.478Z,16.26
2022-09-23T17:59:03.677Z,16.22
2022-09-23T18:02:51.168Z,16.14
2022-09-23T18:06:36.222Z,16.02
2022-09-23T18:10:18.907Z,15.93
2022-09-23T18:14:03.474Z,15.90
2022-09-23T18:17:47.494Z,15.85
2022-09-23T18:21:32.083Z,15.67
2022-09-23T18:25:37.696Z,15.49
2022-09-23T18:29:19.443Z,15.42
2022-09-23T18:33:03.783Z,15.36
2022-09-23T18:36:46.857Z,15.34
2022-09-23T18:40:29.667Z,15.21
2022-09-23T18:44:12.411Z,15.04
2022-09-23T18:48:12.819Z,15.05
2022-09-23T18:51:58.206Z,15.01
2022-09-23T18:55:40.935Z,14.86
2022-09-23T18:59:27.768Z,14.76
2022-09-23T19:03:10.553Z,14.71
2022-09-23T19:06:53.714Z,14.66
2022-09-23T19:10:37.820Z,14.64
2022-09-23T19:14:20.884Z,14.64
2022-09-23T19:18:03.707Z,14.63
2022-09-23T19:21:46.520Z,14.61
2022-09-23T19:25:29.354Z,14.55
2022-09-23T19:29:20.279Z,14.49
2022-09-23T19:33:03.030Z,14.42
2022-09-23T19:36:47.349Z,14.42
2022-09-23T19:40:30.817Z,14.35
2022-09-23T19:44:15.222Z,14.25
2022-09-23T19:47:58.224Z,14.22
2022-09-23T19:51:41.144Z,14.17
2022-09-23T19:55:23.998Z,14.10
2022-09-23T19:59:09.222Z,14.06
2022-09-23T20:02:53.303Z,14.04
2022-09-23T20:06:38.226Z,14.04
2022-09-23T20:10:20.925Z,13.93
2022-09-23T20:14:05.858Z,13.87
2022-09-23T20:17:48.727Z,13.83
2022-09-23T20:21:33.751Z,13.73
2022-09-23T20:25:16.841Z,13.65
2022-09-23T20:29:01.461Z,13.58
2022-09-23T20:32:45.012Z,13.44
2022-09-23T20:36:28.977Z,13.32
2022-09-23T20:40:13.232Z,13.35
2022-09-23T20:43:59.393Z,13.35
2022-09-23T20:47:42.540Z,13.38
2022-09-23T20:51:26.673Z,13.39
2022-09-23T20:55:09.771Z,13.40
2022-09-23T20:58:54.113Z,13.39
2022-09-23T21:02:37.027Z,13.37
2022-09-23T21:06:19.947Z,13.27
2022-09-23T21:10:04.741Z,13.21
2022-09-23T21:13:48.225Z,13.15
2022-09-23T21:17:34.581Z,13.15
2022-09-23T21:21:19.384Z,13.15
2022-09-23T21:29:06.635Z,13.11
2022-09-23T21:32:50.865Z,13.10
2022-09-23T21:36:36.967Z,13.08
2022-09-23T21:40:37.253Z,13.08
2022-09-23T21:44:20.285Z,13.08
2022-09-23T21:48:05.424Z,13.05
2022-09-23T21:51:48.135Z,12.97
2022-09-23T21:55:31.054Z,12.94
2022-09-23T21:59:16.481Z,12.90
2022-09-23T22:03:00.725Z,12.86
2022-09-23T22:06:45.329Z,12.81
2022-09-23T22:10:29.326Z,12.77
2022-09-23T22:14:15.451Z,12.73
2022-09-23T22:18:02.317Z,12.73
2022-09-23T22:21:47.025Z,12.73
2022-09-23T22:25:34.817Z,12.71
2022-09-23T22:29:38.499Z,12.68
2022-09-23T22:33:21.340Z,12.67
2022-09-23T22:37:08.397Z,12.65
2022-09-23T22:40:51.669Z,12.68
2022-09-23T22:44:34.704Z,12.70
2022-09-23T22:48:19.159Z,12.68
2022-09-23T22:52:09.136Z,12.64
2022-09-23T22:55:59.319Z,12.58
2022-09-23T22:59:54.528Z,12.54
2022-09-23T23:03:37.214Z,12.49
2022-09-23T23:07:22.255Z,12.46
2022-09-23T23:11:10.284Z,12.47
2022-09-23T23:14:53.111Z,12.49
2022-09-23T23:18:40.106Z,12.48
2022-09-23T23:22:27.414Z,12.44
2022-09-23T23:26:12.593Z,12.46
2022-09-23T23:29:55.375Z,12.48
2022-09-23T23:33:38.676Z,12.51
2022-09-23T23:37:21.448Z,12.51
2022-09-23T23:41:06.953Z,12.47
2022-09-23T23:44:49.624Z,12.50
2022-09-23T23:48:34.451Z,12.51
2022-09-23T23:52:17.170Z,12.48
2022-09-23T23:56:02.483Z,12.42
2022-09-23T23:59:47.171Z,12.39
